sensor_id;sensor_type;location;lat;lon;timestamp;pressure;altitude;pressure_sealevel;temperature;humidity
23016;BME280;11674;52.428;13.584;2022-10-31T00:04:56;101561.06;;;13.65;67.57
23016;BME280;11674;52.428;13.584;2022-10-31T00:10:04;101567.78;;;13.64;67.57
23016;BME280;11674;52.428;13.584;2022-10-31T00:15:10;101567.25;;;13.62;67.73
23016;BME280;11674;52.428;13.584;2022-10-31T00:20:17;101565.59;;;13.61;67.83
23016;BME280;11674;52.428;13.584;2022-10-31T00:25:25;101563.38;;;13.58;67.73
23016;BME280;11674;52.428;13.584;2022-10-31T00:30:31;101570.97;;;13.52;67.68
23016;BME280;11674;52.428;13.584;2022-10-31T00:35:38;101576.81;;;13.51;67.86
23016;BME280;11674;52.428;13.584;2022-10-31T00:40:45;101582.97;;;13.48;68.02
23016;BME280;11674;52.428;13.584;2022-10-31T00:45:52;101582.44;;;13.46;67.87
23016;BME280;11674;52.428;13.584;2022-10-31T00:50:59;101589.66;;;13.47;67.84
23016;BME280;11674;52.428;13.584;2022-10-31T00:56:06;101589.94;;;13.45;68.19
23016;BME280;11674;52.428;13.584;2022-10-31T01:01:14;101589.69;;;13.42;68.14
23016;BME280;11674;52.428;13.584;2022-10-31T01:06:20;101597.25;;;13.41;68.07
23016;BME280;11674;52.428;13.584;2022-10-31T01:11:30;101598.66;;;13.39;68.22
23016;BME280;11674;52.428;13.584;2022-10-31T01:16:41;101604.25;;;13.34;68.10
23016;BME280;11674;52.428;13.584;2022-10-31T01:21:48;101606.75;;;13.30;68.25
23016;BME280;11674;52.428;13.584;2022-10-31T01:26:55;101598.72;;;13.29;68.42
23016;BME280;11674;52.428;13.584;2022-10-31T01:32:05;101600.13;;;13.26;68.32
23016;BME280;11674;52.428;13.584;2022-10-31T01:37:12;101594.84;;;13.25;68.44
23016;BME280;11674;52.428;13.584;2022-10-31T01:42:21;101596.25;;;13.22;68.37
23016;BME280;11674;52.428;13.584;2022-10-31T01:47:41;101599.59;;;13.19;68.44
23016;BME280;11674;52.428;13.584;2022-10-31T01:52:49;101599.31;;;13.21;68.26
23016;BME280;11674;52.428;13.584;2022-10-31T01:58:02;101612.69;;;13.24;68.38
23016;BME280;11674;52.428;13.584;2022-10-31T02:03:11;101597.63;;;13.25;68.37
23016;BME280;11674;52.428;13.584;2022-10-31T02:08:23;101608.19;;;13.28;68.83
23016;BME280;11674;52.428;13.584;2022-10-31T02:13:33;101607.59;;;13.31;68.85
23016;BME280;11674;52.428;13.584;2022-10-31T02:18:42;101611.25;;;13.31;68.91
23016;BME280;11674;52.428;13.584;2022-10-31T02:40:39;101614.91;;;13.17;68.88
23016;BME280;11674;52.428;13.584;2022-10-31T02:51:39;101618.34;;;13.04;68.88
23016;BME280;11674;52.428;13.584;2022-10-31T02:56:48;101625.88;;;12.98;69.00
23016;BME280;11674;52.428;13.584;2022-10-31T03:13:03;101632.59;;;12.82;69.13
23016;BME280;11674;52.428;13.584;2022-10-31T03:18:30;101645.97;;;12.80;69.21
23016;BME280;11674;52.428;13.584;2022-10-31T03:23:43;101641.81;;;12.78;69.06
23016;BME280;11674;52.428;13.584;2022-10-31T03:28:59;101644.59;;;12.78;69.31
23016;BME280;11674;52.428;13.584;2022-10-31T03:34:12;101646.56;;;12.77;69.31
23016;BME280;11674;52.428;13.584;2022-10-31T03:39:21;101650.44;;;12.76;69.30
23016;BME280;11674;52.428;13.584;2022-10-31T03:44:30;101652.69;;;12.74;69.20
23016;BME280;11674;52.428;13.584;2022-10-31T03:49:39;101668.53;;;12.74;69.54
23016;BME280;11674;52.428;13.584;2022-10-31T03:54:54;101663.81;;;12.74;69.37
23016;BME280;11674;52.428;13.584;2022-10-31T04:00:14;101681.63;;;12.78;69.52
23016;BME280;11674;52.428;13.584;2022-10-31T04:05:26;101683.00;;;12.86;69.26
23016;BME280;11674;52.428;13.584;2022-10-31T04:10:37;101679.38;;;12.90;69.45
23016;BME280;11674;52.428;13.584;2022-10-31T04:15:45;101679.38;;;12.90;69.49
23016;BME280;11674;52.428;13.584;2022-10-31T04:21:01;101689.66;;;12.90;69.57
23016;BME280;11674;52.428;13.584;2022-10-31T04:26:10;101687.72;;;12.90;69.63
23016;BME280;11674;52.428;13.584;2022-10-31T04:31:27;101686.88;;;12.90;69.77
23016;BME280;11674;52.428;13.584;2022-10-31T04:36:34;101692.16;;;12.91;69.80
23016;BME280;11674;52.428;13.584;2022-10-31T04:41:42;101694.94;;;12.91;69.84
23016;BME280;11674;52.428;13.584;2022-10-31T04:46:49;101700.78;;;12.90;69.76
23016;BME280;11674;52.428;13.584;2022-10-31T04:51:56;101704.72;;;12.89;69.77
23016;BME280;11674;52.428;13.584;2022-10-31T04:57:04;101700.53;;;12.91;69.99
23016;BME280;11674;52.428;13.584;2022-10-31T05:02:12;101703.31;;;12.96;70.09
23016;BME280;11674;52.428;13.584;2022-10-31T05:07:25;101706.97;;;12.97;70.10
23016;BME280;11674;52.428;13.584;2022-10-31T05:12:33;101699.16;;;12.99;70.16
23016;BME280;11674;52.428;13.584;2022-10-31T05:18:00;101701.94;;;12.99;70.17
23016;BME280;11674;52.428;13.584;2022-10-31T05:23:16;101704.19;;;12.97;69.91
23016;BME280;11674;52.428;13.584;2022-10-31T05:28:23;101710.88;;;12.96;70.18
23016;BME280;11674;52.428;13.584;2022-10-31T05:33:31;101720.03;;;12.96;70.22
23016;BME280;11674;52.428;13.584;2022-10-31T05:38:57;101718.91;;;12.97;70.24
23016;BME280;11674;52.428;13.584;2022-10-31T05:44:09;101722.28;;;12.99;70.27
23016;BME280;11674;52.428;13.584;2022-10-31T05:49:36;101720.88;;;13.02;70.29
23016;BME280;11674;52.428;13.584;2022-10-31T05:55:02;101721.94;;;13.06;70.47
23016;BME280;11674;52.428;13.584;2022-10-31T06:00:11;101724.75;;;13.06;70.58
23016;BME280;11674;52.428;13.584;2022-10-31T06:05:23;101728.09;;;13.03;70.48
23016;BME280;11674;52.428;13.584;2022-10-31T06:10:30;101726.16;;;12.98;70.69
23016;BME280;11674;52.428;13.584;2022-10-31T06:15:37;101733.41;;;12.99;70.56
23016;BME280;11674;52.428;13.584;2022-10-31T06:20:45;101737.88;;;13.00;70.76
23016;BME280;11674;52.428;13.584;2022-10-31T06:25:52;101745.09;;;13.01;70.55
23016;BME280;11674;52.428;13.584;2022-10-31T06:31:00;101745.63;;;13.03;70.86
23016;BME280;11674;52.428;13.584;2022-10-31T06:36:08;101755.69;;;13.09;70.88
23016;BME280;11674;52.428;13.584;2022-10-31T06:41:16;101764.28;;;13.18;70.99
23016;BME280;11674;52.428;13.584;2022-10-31T06:46:23;101764.81;;;13.25;70.93
23016;BME280;11674;52.428;13.584;2022-10-31T06:51:40;101772.88;;;13.31;70.95
23016;BME280;11674;52.428;13.584;2022-10-31T06:56:48;101782.91;;;13.37;71.09
23016;BME280;11674;52.428;13.584;2022-10-31T07:01:55;101786.78;;;13.41;71.05
23016;BME280;11674;52.428;13.584;2022-10-31T07:07:03;101780.06;;;13.47;70.90
23016;BME280;11674;52.428;13.584;2022-10-31T07:12:12;101783.91;;;13.56;70.92
23016;BME280;11674;52.428;13.584;2022-10-31T07:17:28;101781.38;;;13.65;70.99
23016;BME280;11674;52.428;13.584;2022-10-31T07:22:35;101780.22;;;13.76;71.41
23016;BME280;11674;52.428;13.584;2022-10-31T07:27:43;101789.63;;;13.90;71.44
23016;BME280;11674;52.428;13.584;2022-10-31T07:32:51;101789.31;;;13.96;71.35
23016;BME280;11674;52.428;13.584;2022-10-31T07:38:09;101786.72;;;14.10;71.69
23016;BME280;11674;52.428;13.584;2022-10-31T07:43:17;101800.59;;;14.25;71.83
23016;BME280;11674;52.428;13.584;2022-10-31T07:48:39;101807.69;;;14.51;71.78
23016;BME280;11674;52.428;13.584;2022-10-31T07:54:05;101808.81;;;14.78;72.15
23016;BME280;11674;52.428;13.584;2022-10-31T07:59:12;101804.91;;;15.08;72.34
23016;BME280;11674;52.428;13.584;2022-10-31T08:04:18;101812.19;;;15.37;72.51
23016;BME280;11674;52.428;13.584;2022-10-31T08:09:46;101819.69;;;15.65;72.54
23016;BME280;11674;52.428;13.584;2022-10-31T08:14:55;101814.53;;;15.96;72.38
23016;BME280;11674;52.428;13.584;2022-10-31T08:20:04;101819.25;;;16.19;72.52
23016;BME280;11674;52.428;13.584;2022-10-31T08:25:18;101809.78;;;16.33;72.44
23016;BME280;11674;52.428;13.584;2022-10-31T08:30:41;101818.75;;;16.54;72.22
23016;BME280;11674;52.428;13.584;2022-10-31T08:36:06;101824.56;;;16.76;71.87
23016;BME280;11674;52.428;13.584;2022-10-31T08:41:36;101833.41;;;16.83;71.53
23016;BME280;11674;52.428;13.584;2022-10-31T08:46:46;101823.25;;;16.87;71.74
23016;BME280;11674;52.428;13.584;2022-10-31T08:51:55;101831.56;;;16.92;71.81
23016;BME280;11674;52.428;13.584;2022-10-31T08:57:07;101826.09;;;17.00;71.64
23016;BME280;11674;52.428;13.584;2022-10-31T09:02:17;101825.28;;;17.13;71.24
23016;BME280;11674;52.428;13.584;2022-10-31T09:07:33;101818.03;;;17.26;71.21
23016;BME280;11674;52.428;13.584;2022-10-31T09:12:41;101826.56;;;17.34;71.07
23016;BME280;11674;52.428;13.584;2022-10-31T09:17:57;101830.56;;;17.47;70.93
23016;BME280;11674;52.428;13.584;2022-10-31T09:23:14;101837.84;;;17.61;71.04
23016;BME280;11674;52.428;13.584;2022-10-31T09:28:23;101836.50;;;17.72;71.13
23016;BME280;11674;52.428;13.584;2022-10-31T09:33:34;101844.31;;;17.75;70.62
23016;BME280;11674;52.428;13.584;2022-10-31T09:39:00;101843.81;;;17.73;70.87
23016;BME280;11674;52.428;13.584;2022-10-31T09:44:20;101839.75;;;17.79;70.74
23016;BME280;11674;52.428;13.584;2022-10-31T09:54:45;101848.06;;;17.98;70.56
23016;BME280;11674;52.428;13.584;2022-10-31T09:59:52;101855.13;;;18.09;70.35
23016;BME280;11674;52.428;13.584;2022-10-31T10:05:02;101845.31;;;18.20;70.04
23016;BME280;11674;52.428;13.584;2022-10-31T10:10:15;101845.41;;;18.28;69.87
23016;BME280;11674;52.428;13.584;2022-10-31T10:21:39;101847.38;;;18.28;69.86
23016;BME280;11674;52.428;13.584;2022-10-31T10:27:48;101836.47;;;18.40;69.66
23016;BME280;11674;52.428;13.584;2022-10-31T10:32:30;101840.00;;;18.67;69.44
23016;BME280;11674;52.428;13.584;2022-10-31T10:37:41;101825.63;;;18.91;69.07
23016;BME280;11674;52.428;13.584;2022-10-31T10:48:29;101823.50;;;19.40;68.57
23016;BME280;11674;52.428;13.584;2022-10-31T10:58:55;101818.16;;;19.69;68.28
23016;BME280;11674;52.428;13.584;2022-10-31T11:04:02;101818.69;;;19.80;68.11
23016;BME280;11674;52.428;13.584;2022-10-31T11:09:11;101820.19;;;19.77;67.75
23016;BME280;11674;52.428;13.584;2022-10-31T11:14:19;101820.00;;;19.74;67.70
23016;BME280;11674;52.428;13.584;2022-10-31T11:19:26;101811.69;;;19.69;67.49
23016;BME280;11674;52.428;13.584;2022-10-31T11:24:39;101805.56;;;19.75;67.35
23016;BME280;11674;52.428;13.584;2022-10-31T11:29:47;101805.63;;;19.84;67.19
23016;BME280;11674;52.428;13.584;2022-10-31T11:34:58;101801.16;;;19.91;66.99
23016;BME280;11674;52.428;13.584;2022-10-31T11:40:16;101794.59;;;20.13;66.88
23016;BME280;11674;52.428;13.584;2022-10-31T11:50:38;101784.66;;;20.66;66.09
23016;BME280;11674;52.428;13.584;2022-10-31T11:55:46;101786.47;;;20.88;65.53
23016;BME280;11674;52.428;13.584;2022-10-31T12:00:55;101787.31;;;21.05;64.94
23016;BME280;11674;52.428;13.584;2022-10-31T12:06:13;101788.69;;;21.37;64.52
23016;BME280;11674;52.428;13.584;2022-10-31T12:11:35;101780.22;;;21.83;64.18
23016;BME280;11674;52.428;13.584;2022-10-31T12:32:43;101756.03;;;24.92;59.87
23016;BME280;11674;52.428;13.584;2022-10-31T12:38:18;101759.19;;;26.11;58.10
23016;BME280;11674;52.428;13.584;2022-10-31T12:43:46;101743.88;;;26.34;57.56
23016;BME280;11674;52.428;13.584;2022-10-31T13:00:18;101741.97;;;25.73;57.51
23016;BME280;11674;52.428;13.584;2022-10-31T13:05:41;101746.81;;;25.88;57.69
23016;BME280;11674;52.428;13.584;2022-10-31T13:11:02;101719.81;;;25.47;56.99
23016;BME280;11674;52.428;13.584;2022-10-31T13:16:42;101722.09;;;25.57;56.73
23016;BME280;11674;52.428;13.584;2022-10-31T13:27:32;101719.50;;;26.18;55.27
23016;BME280;11674;52.428;13.584;2022-10-31T13:54:37;101707.00;;;23.64;56.97
23016;BME280;11674;52.428;13.584;2022-10-31T13:59:56;101699.34;;;23.29;56.81
23016;BME280;11674;52.428;13.584;2022-10-31T14:05:30;101702.34;;;22.88;56.57
23016;BME280;11674;52.428;13.584;2022-10-31T14:10:46;101695.38;;;22.53;57.10
23016;BME280;11674;52.428;13.584;2022-10-31T14:16:06;101691.03;;;22.14;57.25
23016;BME280;11674;52.428;13.584;2022-10-31T14:26:32;101690.78;;;21.49;57.69
23016;BME280;11674;52.428;13.584;2022-10-31T14:31:44;101700.53;;;21.31;57.89
23016;BME280;11674;52.428;13.584;2022-10-31T14:42:35;101678.59;;;20.99;58.55
23016;BME280;11674;52.428;13.584;2022-10-31T14:48:02;101672.63;;;20.84;58.57
23016;BME280;11674;52.428;13.584;2022-10-31T14:58:43;101673.19;;;20.52;59.20
23016;BME280;11674;52.428;13.584;2022-10-31T15:03:52;101667.59;;;20.35;59.46
23016;BME280;11674;52.428;13.584;2022-10-31T15:08:59;101662.00;;;20.18;59.65
23016;BME280;11674;52.428;13.584;2022-10-31T15:14:29;101663.78;;;19.97;59.64
23016;BME280;11674;52.428;13.584;2022-10-31T15:19:37;101671.53;;;19.74;59.96
23016;BME280;11674;52.428;13.584;2022-10-31T15:24:44;101668.84;;;19.52;60.22
23016;BME280;11674;52.428;13.584;2022-10-31T15:29:54;101664.53;;;19.38;60.77
23016;BME280;11674;52.428;13.584;2022-10-31T15:35:09;101657.16;;;19.20;60.91
23016;BME280;11674;52.428;13.584;2022-10-31T15:40:17;101659.91;;;19.03;60.86
23016;BME280;11674;52.428;13.584;2022-10-31T15:45:26;101659.81;;;18.86;61.20
23016;BME280;11674;52.428;13.584;2022-10-31T15:50:38;101661.94;;;18.72;61.61
23016;BME280;11674;52.428;13.584;2022-10-31T15:55:49;101660.34;;;18.57;61.57
23016;BME280;11674;52.428;13.584;2022-10-31T16:01:06;101666.03;;;18.44;62.18
23016;BME280;11674;52.428;13.584;2022-10-31T16:06:20;101667.44;;;18.33;62.42
23016;BME280;11674;52.428;13.584;2022-10-31T16:11:35;101663.22;;;18.22;62.50
23016;BME280;11674;52.428;13.584;2022-10-31T16:16:46;101668.06;;;18.08;62.73
23016;BME280;11674;52.428;13.584;2022-10-31T16:22:02;101675.06;;;17.97;63.05
23016;BME280;11674;52.428;13.584;2022-10-31T16:27:28;101676.06;;;17.79;63.30
23016;BME280;11674;52.428;13.584;2022-10-31T16:32:50;101684.53;;;17.65;63.36
23016;BME280;11674;52.428;13.584;2022-10-31T16:37:58;101676.97;;;17.52;63.64
23016;BME280;11674;52.428;13.584;2022-10-31T16:43:09;101678.06;;;17.38;63.92
23016;BME280;11674;52.428;13.584;2022-10-31T16:48:22;101676.84;;;17.30;63.93
23016;BME280;11674;52.428;13.584;2022-10-31T16:53:29;101674.97;;;17.26;64.33
23016;BME280;11674;52.428;13.584;2022-10-31T16:58:36;101661.69;;;17.18;64.25
23016;BME280;11674;52.428;13.584;2022-10-31T17:03:43;101656.00;;;17.09;64.44
23016;BME280;11674;52.428;13.584;2022-10-31T17:08:50;101659.91;;;16.95;64.70
23016;BME280;11674;52.428;13.584;2022-10-31T17:13:57;101653.28;;;16.77;64.85
23016;BME280;11674;52.428;13.584;2022-10-31T17:19:04;101665.50;;;16.68;64.99
23016;BME280;11674;52.428;13.584;2022-10-31T17:24:13;101652.22;;;16.60;65.48
23016;BME280;11674;52.428;13.584;2022-10-31T17:29:20;101656.47;;;16.57;65.44
23016;BME280;11674;52.428;13.584;2022-10-31T17:34:27;101657.28;;;16.58;65.64
23016;BME280;11674;52.428;13.584;2022-10-31T17:39:34;101646.69;;;16.55;65.38
23016;BME280;11674;52.428;13.584;2022-10-31T17:44:41;101642.63;;;16.47;65.78
23016;BME280;11674;52.428;13.584;2022-10-31T17:49:48;101645.22;;;16.44;65.88
23016;BME280;11674;52.428;13.584;2022-10-31T17:54:55;101645.84;;;16.41;65.86
23016;BME280;11674;52.428;13.584;2022-10-31T18:00:08;101638.03;;;16.38;66.17
23016;BME280;11674;52.428;13.584;2022-10-31T18:05:15;101640.59;;;16.34;66.04
23016;BME280;11674;52.428;13.584;2022-10-31T18:10:22;101642.88;;;16.32;66.28
23016;BME280;11674;52.428;13.584;2022-10-31T18:15:29;101636.84;;;16.25;66.33
23016;BME280;11674;52.428;13.584;2022-10-31T18:20:36;101634.44;;;16.19;66.52
23016;BME280;11674;52.428;13.584;2022-10-31T18:25:43;101637.31;;;16.14;66.83
23016;BME280;11674;52.428;13.584;2022-10-31T18:30:50;101632.94;;;16.08;66.97
23016;BME280;11674;52.428;13.584;2022-10-31T18:36:03;101634.09;;;16.07;66.94
23016;BME280;11674;52.428;13.584;2022-10-31T18:41:10;101633.25;;;16.06;66.97
23016;BME280;11674;52.428;13.584;2022-10-31T18:46:17;101616.53;;;16.01;67.35
23016;BME280;11674;52.428;13.584;2022-10-31T18:51:24;101617.97;;;15.99;67.40
23016;BME280;11674;52.428;13.584;2022-10-31T18:56:31;101606.25;;;15.97;67.45
23016;BME280;11674;52.428;13.584;2022-10-31T19:01:38;101613.91;;;15.91;67.51
23016;BME280;11674;52.428;13.584;2022-10-31T19:06:45;101607.66;;;15.81;67.78
23016;BME280;11674;52.428;13.584;2022-10-31T19:11:52;101599.63;;;15.74;67.89
23016;BME280;11674;52.428;13.584;2022-10-31T19:16:59;101604.72;;;15.72;67.90
23016;BME280;11674;52.428;13.584;2022-10-31T19:22:06;101601.16;;;15.67;68.14
23016;BME280;11674;52.428;13.584;2022-10-31T19:27:13;101597.31;;;15.63;68.20
23016;BME280;11674;52.428;13.584;2022-10-31T19:32:20;101593.38;;;15.64;68.13
23016;BME280;11674;52.428;13.584;2022-10-31T19:37:38;101591.72;;;15.63;68.50
23016;BME280;11674;52.428;13.584;2022-10-31T19:42:45;101586.13;;;15.63;68.31
23016;BME280;11674;52.428;13.584;2022-10-31T19:47:52;101586.66;;;15.65;68.45
23016;BME280;11674;52.428;13.584;2022-10-31T19:52:59;101575.25;;;15.61;68.52
23016;BME280;11674;52.428;13.584;2022-10-31T19:58:06;101570.94;;;15.50;68.48
23016;BME280;11674;52.428;13.584;2022-10-31T20:03:13;101571.47;;;15.34;69.05
23016;BME280;11674;52.428;13.584;2022-10-31T20:08:20;101551.72;;;15.25;69.07
23016;BME280;11674;52.428;13.584;2022-10-31T20:13:28;101549.28;;;15.19;69.17
23016;BME280;11674;52.428;13.584;2022-10-31T20:18:36;101543.78;;;15.14;69.09
23016;BME280;11674;52.428;13.584;2022-10-31T20:23:44;101545.81;;;15.08;69.30
23016;BME280;11674;52.428;13.584;2022-10-31T20:28:51;101529.34;;;15.07;69.39
23016;BME280;11674;52.428;13.584;2022-10-31T20:33:58;101537.16;;;15.10;69.29
23016;BME280;11674;52.428;13.584;2022-10-31T20:39:05;101538.34;;;15.04;69.54
23016;BME280;11674;52.428;13.584;2022-10-31T20:44:12;101526.69;;;14.97;69.62
23016;BME280;11674;52.428;13.584;2022-10-31T20:49:19;101530.63;;;14.96;69.62
23016;BME280;11674;52.428;13.584;2022-10-31T20:54:26;101533.41;;;14.96;69.59
23016;BME280;11674;52.428;13.584;2022-10-31T20:59:33;101533.41;;;14.96;69.72
23016;BME280;11674;52.428;13.584;2022-10-31T21:04:40;101525.03;;;14.96;69.78
23016;BME280;11674;52.428;13.584;2022-10-31T21:09:47;101521.72;;;14.94;69.75
23016;BME280;11674;52.428;13.584;2022-10-31T21:14:54;101520.38;;;14.91;69.93
23016;BME280;11674;52.428;13.584;2022-10-31T21:20:02;101519.34;;;14.82;70.00
23016;BME280;11674;52.428;13.584;2022-10-31T21:25:09;101523.59;;;14.80;70.29
23016;BME280;11674;52.428;13.584;2022-10-31T21:30:16;101519.06;;;14.84;70.09
23016;BME280;11674;52.428;13.584;2022-10-31T21:35:23;101507.81;;;14.89;70.00
23016;BME280;11674;52.428;13.584;2022-10-31T21:40:30;101491.06;;;14.89;70.19
23016;BME280;11674;52.428;13.584;2022-10-31T21:45:37;101501.41;;;14.88;70.17
23016;BME280;11674;52.428;13.584;2022-10-31T21:50:44;101484.63;;;14.88;70.32
23016;BME280;11674;52.428;13.584;2022-10-31T21:55:51;101482.13;;;14.87;70.31
23016;BME280;11674;52.428;13.584;2022-10-31T22:01:01;101468.72;;;14.89;70.37
23016;BME280;11674;52.428;13.584;2022-10-31T22:06:09;101458.34;;;14.89;70.41
23016;BME280;11674;52.428;13.584;2022-10-31T22:11:17;101461.13;;;14.89;70.55
23016;BME280;11674;52.428;13.584;2022-10-31T22:16:25;101468.72;;;14.89;70.73
23016;BME280;11674;52.428;13.584;2022-10-31T22:21:41;101468.94;;;14.92;70.77
23016;BME280;11674;52.428;13.584;2022-10-31T22:26:48;101468.31;;;14.95;70.35
23016;BME280;11674;52.428;13.584;2022-10-31T22:31:55;101467.50;;;14.95;70.45
23016;BME280;11674;52.428;13.584;2022-10-31T22:37:02;101453.59;;;14.90;70.65
23016;BME280;11674;52.428;13.584;2022-10-31T22:42:09;101455.88;;;14.88;70.75
23016;BME280;11674;52.428;13.584;2022-10-31T22:47:16;101455.03;;;14.87;70.95
23016;BME280;11674;52.428;13.584;2022-10-31T22:52:23;101449.44;;;14.87;70.64
23016;BME280;11674;52.428;13.584;2022-10-31T22:57:30;101434.97;;;14.85;70.97
23016;BME280;11674;52.428;13.584;2022-10-31T23:02:37;101438.63;;;14.81;71.03
23016;BME280;11674;52.428;13.584;2022-10-31T23:07:44;101416.59;;;14.79;70.95
23016;BME280;11674;52.428;13.584;2022-10-31T23:12:51;101400.44;;;14.76;71.36
23016;BME280;11674;52.428;13.584;2022-10-31T23:17:58;101416.59;;;14.79;71.22
23016;BME280;11674;52.428;13.584;2022-10-31T23:23:05;101410.63;;;14.86;71.24
23016;BME280;11674;52.428;13.584;2022-10-31T23:28:12;101398.16;;;14.97;71.21
23016;BME280;11674;52.428;13.584;2022-10-31T23:33:19;101380.50;;;15.01;71.63
23016;BME280;11674;52.428;13.584;2022-10-31T23:38:26;101381.53;;;15.05;71.76
23016;BME280;11674;52.428;13.584;2022-10-31T23:43:33;101385.06;;;15.11;71.70
23016;BME280;11674;52.428;13.584;2022-10-31T23:48:40;101376.91;;;15.14;71.69
23016;BME280;11674;52.428;13.584;2022-10-31T23:53:47;101374.03;;;15.19;71.49
23016;BME280;11674;52.428;13.584;2022-10-31T23:58:54;101361.41;;;15.22;71.93
